createdAt,value
2018-03-03T00:00:02.436Z,84.70
2018-03-03T00:02:32.258Z,85.10
2018-03-03T00:05:00.507Z,84.80
2018-03-03T00:07:30.627Z,85.40
2018-03-03T00:09:59.897Z,86.30
2018-03-03T00:12:31.102Z,86.00
2018-03-03T00:15:01.112Z,85.60
2018-03-03T00:17:31.542Z,85.60
2018-03-03T00:20:01.746Z,85.40
2018-03-03T00:22:41.529Z,85.60
2018-03-03T00:25:09.483Z,85.60
2018-03-03T00:27:37.588Z,85.40
2018-03-03T00:30:06.892Z,85.40
2018-03-03T00:32:35.965Z,85.50
2018-03-03T00:35:04.183Z,85.60
2018-03-03T00:37:32.492Z,85.50
2018-03-03T00:40:02.157Z,85.50
2018-03-03T00:42:31.537Z,85.20
2018-03-03T00:45:00.169Z,85.20
2018-03-03T00:47:30.134Z,85.80
2018-03-03T00:50:02.222Z,86.30
2018-03-03T00:52:32.032Z,86.90
2018-03-03T00:55:02.401Z,85.90
2018-03-03T00:57:32.006Z,86.10
2018-03-03T01:00:02.635Z,86.20
2018-03-03T01:02:33.219Z,86.20
2018-03-03T01:05:03.886Z,87.50
2018-03-03T01:07:32.236Z,87.80
2018-03-03T01:10:00.782Z,87.80
2018-03-03T01:12:29.673Z,88.50
2018-03-03T01:14:58.715Z,88.30
2018-03-03T01:17:28.627Z,88.00
2018-03-03T01:19:57.600Z,87.40
2018-03-03T01:22:29.054Z,87.00
2018-03-03T01:24:57.471Z,87.20
2018-03-03T01:27:27.244Z,86.90
2018-03-03T01:29:57.763Z,86.40
2018-03-03T01:32:27.371Z,86.60
2018-03-03T01:34:55.469Z,85.80
2018-03-03T01:37:24.430Z,85.50
2018-03-03T01:39:53.259Z,85.30
2018-03-03T01:42:21.684Z,85.40
2018-03-03T01:44:50.133Z,85.60
2018-03-03T01:47:18.625Z,85.90
2018-03-03T01:49:46.927Z,85.30
2018-03-03T01:52:15.264Z,85.70
2018-03-03T01:54:42.841Z,85.50
2018-03-03T01:57:10.373Z,85.60
2018-03-03T01:59:38.674Z,85.50
2018-03-03T02:02:06.827Z,85.70
2018-03-03T02:04:35.567Z,86.50
2018-03-03T02:07:03.542Z,86.70
2018-03-03T02:09:31.758Z,86.50
2018-03-03T02:11:59.989Z,86.50
2018-03-03T02:14:28.627Z,86.10
2018-03-03T02:16:57.605Z,85.70
2018-03-03T02:19:26.348Z,85.60
2018-03-03T02:21:55.027Z,86.50
2018-03-03T02:24:25.043Z,87.10
2018-03-03T02:26:53.091Z,86.10
2018-03-03T02:29:21.693Z,86.50
2018-03-03T02:31:49.537Z,86.80
2018-03-03T02:34:20.444Z,87.70
2018-03-03T02:36:48.400Z,87.50
2018-03-03T02:39:16.726Z,88.50
2018-03-03T02:41:44.298Z,88.10
2018-03-03T02:44:12.254Z,88.20
2018-03-03T02:46:40.254Z,87.30
2018-03-03T02:49:08.172Z,87.10
2018-03-03T02:51:35.729Z,86.60
2018-03-03T02:54:03.460Z,85.90
2018-03-03T02:56:32.820Z,85.80
2018-03-03T02:59:01.504Z,85.80
2018-03-03T03:01:31.935Z,86.70
2018-03-03T03:04:00.572Z,87.10
2018-03-03T03:06:30.118Z,88.50
2018-03-03T03:09:00.080Z,88.70
2018-03-03T03:11:29.050Z,89.10
2018-03-03T03:13:58.334Z,88.90
2018-03-03T03:16:27.282Z,87.10
2018-03-03T03:18:58.876Z,86.70
2018-03-03T03:21:28.840Z,87.50
2018-03-03T03:23:57.000Z,88.20
2018-03-03T03:26:25.552Z,87.20
2018-03-03T03:28:53.146Z,87.40
2018-03-03T03:31:21.295Z,88.00
2018-03-03T03:33:50.338Z,88.10
2018-03-03T03:36:18.583Z,87.40
2018-03-03T03:38:46.926Z,87.80
2018-03-03T03:41:14.444Z,87.90
2018-03-03T03:43:42.502Z,87.50
2018-03-03T03:46:10.686Z,86.50
2018-03-03T03:48:38.639Z,85.90
2018-03-03T03:51:12.308Z,86.30
2018-03-03T03:53:40.615Z,87.50
2018-03-03T03:56:08.926Z,87.20
2018-03-03T03:58:37.001Z,87.00
2018-03-03T04:01:05.537Z,87.70
2018-03-03T04:03:33.918Z,87.40
2018-03-03T04:06:04.381Z,88.90
2018-03-03T04:08:33.153Z,88.70
2018-03-03T04:11:01.406Z,88.60
2018-03-03T04:13:30.115Z,89.20
2018-03-03T04:16:00.601Z,89.70
2018-03-03T04:18:28.889Z,89.20
2018-03-03T04:20:56.719Z,88.30
2018-03-03T04:23:25.453Z,87.50
2018-03-03T04:25:53.381Z,87.60
2018-03-03T04:28:21.913Z,87.40
2018-03-03T04:30:51.081Z,87.20
2018-03-03T04:33:19.392Z,85.20
2018-03-03T04:35:47.093Z,87.00
2018-03-03T04:38:14.636Z,86.80
2018-03-03T04:40:42.940Z,87.40
2018-03-03T04:43:10.911Z,87.00
2018-03-03T04:45:38.450Z,86.70
2018-03-03T04:48:06.747Z,86.90
2018-03-03T04:50:35.102Z,86.90
2018-03-03T04:53:03.562Z,85.90
2018-03-03T04:55:32.141Z,87.50
2018-03-03T04:58:00.664Z,87.00
2018-03-03T10:01:02.896Z,81.30
2018-03-03T10:03:30.976Z,80.80
2018-03-03T10:11:49.887Z,81.60
2018-03-03T10:14:18.187Z,81.10
2018-03-03T10:16:46.104Z,81.20
2018-03-03T10:19:16.387Z,81.90
2018-03-03T10:21:44.705Z,81.40
2018-03-03T10:24:13.069Z,81.30
2018-03-03T10:26:43.015Z,80.80
2018-03-03T10:29:11.410Z,80.50
2018-03-03T10:31:38.953Z,80.70
2018-03-03T10:34:08.280Z,81.40
2018-03-03T10:36:37.837Z,82.00
2018-03-03T10:39:06.184Z,81.20
2018-03-03T10:41:34.080Z,80.50
2018-03-03T10:44:02.008Z,80.50
2018-03-03T10:46:29.926Z,80.20
2018-03-03T10:48:58.288Z,80.40
2018-03-03T10:51:26.251Z,80.50
2018-03-03T10:53:54.536Z,81.70
2018-03-03T10:56:23.298Z,83.50
2018-03-03T10:58:51.585Z,83.90
2018-03-03T11:01:19.524Z,84.20
2018-03-03T11:03:48.038Z,83.30
2018-03-03T11:06:15.963Z,83.60
2018-03-03T11:08:43.485Z,83.60
2018-03-03T11:11:11.818Z,83.30
2018-03-03T11:13:39.744Z,83.90
2018-03-03T11:16:08.052Z,84.70
2018-03-03T11:18:43.234Z,84.80
2018-03-03T11:21:11.595Z,85.00
2018-03-03T11:23:39.904Z,85.50
2018-03-03T11:26:12.656Z,85.30
2018-03-03T11:28:40.955Z,85.40
2018-03-03T11:31:10.930Z,85.50
2018-03-03T11:33:38.979Z,85.40
2018-03-03T11:36:07.349Z,85.60
2018-03-03T11:38:35.671Z,85.20
2018-03-03T11:41:05.251Z,85.40
2018-03-03T11:43:33.164Z,84.60
2018-03-03T11:46:01.461Z,84.80
2018-03-03T11:48:30.527Z,85.90
2018-03-03T11:50:58.807Z,85.10
2018-03-03T11:53:26.729Z,84.80
2018-03-03T11:55:54.773Z,84.20
2018-03-03T11:58:23.612Z,83.10
2018-03-03T12:00:51.550Z,83.70
2018-03-03T12:03:19.479Z,83.70
2018-03-03T12:05:47.795Z,84.50
2018-03-03T12:08:15.778Z,84.70
2018-03-03T12:10:44.195Z,84.80
2018-03-03T12:13:11.727Z,84.60
2018-03-03T12:15:40.018Z,84.40
2018-03-03T12:18:08.061Z,84.10
2018-03-03T12:20:35.588Z,84.00
2018-03-03T12:23:03.877Z,84.60
2018-03-03T12:25:35.791Z,83.20
2018-03-03T12:28:04.085Z,82.70
2018-03-03T12:30:31.627Z,81.70
2018-03-03T12:32:59.688Z,80.90
2018-03-03T12:35:27.627Z,79.20
2018-03-03T12:37:56.233Z,79.40
2018-03-03T12:40:28.405Z,78.30
2018-03-03T12:42:56.722Z,79.10
2018-03-03T12:45:24.660Z,78.80
2018-03-03T12:47:53.643Z,78.60
2018-03-03T12:50:21.932Z,78.50
2018-03-03T12:52:49.454Z,78.90
2018-03-03T12:55:17.791Z,79.40
2018-03-03T12:57:46.089Z,79.60
2018-03-03T13:00:14.008Z,81.00
2018-03-03T13:02:42.278Z,81.20
2018-03-03T13:05:10.572Z,82.10
2018-03-03T13:07:38.620Z,81.30
2018-03-03T13:10:11.080Z,80.90
2018-03-03T13:12:39.100Z,79.90
2018-03-03T13:15:11.976Z,78.50
2018-03-03T13:17:40.286Z,80.50
2018-03-03T13:20:08.582Z,80.20
2018-03-03T13:22:36.553Z,80.80
2018-03-03T13:25:04.831Z,80.20
2018-03-03T13:27:32.427Z,81.30
2018-03-03T13:30:01.302Z,81.90
2018-03-03T13:32:29.970Z,82.40
2018-03-03T13:34:57.917Z,82.10
2018-03-03T13:37:26.366Z,83.50
2018-03-03T13:39:54.290Z,83.30
2018-03-03T13:42:22.564Z,81.40
2018-03-03T13:44:51.554Z,81.00
2018-03-03T13:47:19.880Z,80.80
2018-03-03T13:49:51.681Z,81.10
2018-03-03T13:52:20.060Z,82.00
2018-03-03T13:54:48.977Z,82.70
2018-03-03T13:57:17.281Z,83.50
2018-03-03T13:59:45.342Z,83.20
2018-03-03T14:02:13.295Z,82.90
2018-03-03T14:04:41.222Z,82.40
2018-03-03T14:07:10.198Z,82.50
2018-03-03T14:09:38.514Z,81.70
2018-03-03T14:12:07.855Z,80.60
2018-03-03T14:14:36.164Z,80.60
2018-03-03T14:17:04.476Z,80.00
2018-03-03T14:19:32.816Z,79.20
2018-03-03T14:22:03.190Z,79.50
2018-03-03T14:24:31.494Z,78.90
2018-03-03T14:26:59.830Z,79.50
2018-03-03T14:29:27.809Z,80.90
2018-03-03T14:31:56.305Z,79.70
2018-03-03T14:34:24.610Z,79.50
2018-03-03T14:36:52.302Z,80.40
2018-03-03T14:39:20.224Z,80.20
2018-03-03T14:41:50.456Z,79.70
2018-03-03T14:44:18.013Z,80.80
2018-03-03T14:46:46.314Z,81.30
2018-03-03T14:49:14.258Z,80.10
2018-03-03T14:51:42.214Z,80.20
2018-03-03T14:54:10.138Z,78.90
2018-03-03T14:56:37.677Z,78.90
2018-03-03T14:59:05.644Z,79.50
2018-03-03T15:01:33.940Z,79.40
2018-03-03T15:04:01.469Z,78.90
2018-03-03T15:06:29.510Z,78.50
2018-03-03T15:08:57.835Z,77.90
2018-03-03T15:11:25.412Z,77.30
2018-03-03T15:13:53.377Z,77.20
2018-03-03T15:16:21.310Z,79.20
2018-03-03T15:18:49.247Z,78.80
2018-03-03T15:21:17.391Z,78.10
2018-03-03T15:23:45.315Z,78.10
2018-03-03T15:26:13.259Z,78.40
2018-03-03T15:28:41.562Z,77.90
2018-03-03T15:31:10.684Z,79.50
2018-03-03T15:33:38.217Z,77.90
2018-03-03T15:36:06.255Z,77.60
2018-03-03T15:38:34.181Z,78.00
2018-03-03T15:41:02.182Z,79.10
2018-03-03T15:43:30.164Z,80.00
2018-03-03T15:45:58.089Z,80.20
2018-03-03T15:48:26.020Z,79.50
2018-03-03T15:50:54.432Z,80.00
2018-03-03T15:53:21.952Z,80.50
2018-03-03T15:55:49.472Z,80.70
2018-03-03T15:58:17.503Z,80.70
2018-03-03T16:00:45.814Z,80.60
2018-03-03T16:03:13.748Z,79.80
2018-03-03T16:05:42.514Z,80.30
2018-03-03T16:08:10.051Z,79.10
2018-03-03T16:10:38.054Z,79.30
2018-03-03T16:13:06.480Z,78.50
2018-03-03T16:15:34.778Z,79.10
2018-03-03T16:18:03.106Z,79.80
2018-03-03T16:20:31.408Z,79.80
2018-03-03T16:22:59.319Z,79.50
2018-03-03T16:25:27.600Z,79.20
2018-03-03T16:27:57.531Z,79.80
2018-03-03T16:30:25.939Z,80.00
2018-03-03T16:32:54.237Z,79.70
2018-03-03T16:35:22.688Z,79.80
2018-03-03T16:37:55.229Z,79.90
2018-03-03T16:40:23.562Z,80.10
2018-03-03T16:42:51.498Z,80.40
2018-03-03T16:45:19.801Z,79.90
2018-03-03T16:47:47.772Z,80.30
2018-03-03T16:50:16.120Z,80.20
2018-03-03T16:52:44.051Z,80.20
2018-03-03T16:55:12.142Z,80.70
2018-03-03T16:57:40.492Z,80.70
2018-03-03T17:00:08.032Z,81.00
2018-03-03T17:02:36.128Z,81.00
2018-03-03T17:05:04.990Z,81.30
2018-03-03T17:07:32.905Z,81.30
2018-03-03T17:10:00.975Z,81.50
2018-03-03T17:12:28.892Z,81.80
2018-03-03T17:14:57.192Z,82.50
2018-03-03T17:17:25.522Z,82.10
2018-03-03T17:19:53.816Z,82.40
2018-03-03T17:22:22.118Z,82.00
2018-03-03T17:24:52.843Z,82.60
2018-03-03T17:27:21.150Z,82.10
2018-03-03T17:29:49.106Z,82.00
2018-03-03T17:32:17.311Z,82.60
2018-03-03T17:34:44.856Z,82.50
2018-03-03T17:37:13.181Z,82.60
2018-03-03T17:39:41.542Z,82.90
2018-03-03T17:42:09.851Z,82.90
2018-03-03T17:44:41.387Z,83.70
2018-03-03T17:47:09.350Z,83.70
2018-03-03T17:49:38.375Z,84.00
2018-03-03T17:52:06.288Z,83.20
2018-03-03T17:54:34.176Z,83.00
2018-03-03T17:57:02.475Z,82.60
2018-03-03T17:59:30.774Z,82.40
2018-03-03T18:01:59.124Z,82.90
2018-03-03T18:04:29.736Z,83.30
2018-03-03T18:06:57.774Z,83.00
2018-03-03T18:09:26.104Z,82.90
2018-03-03T18:11:59.599Z,82.40
2018-03-03T18:14:28.087Z,82.30
2018-03-03T18:16:56.060Z,82.00
2018-03-03T18:19:40.199Z,82.30
2018-03-03T18:22:08.840Z,82.40
2018-03-03T18:24:42.297Z,82.50
2018-03-03T18:27:10.978Z,83.10
2018-03-03T18:29:39.276Z,83.30
2018-03-03T18:32:07.335Z,83.90
2018-03-03T18:34:36.819Z,85.30
2018-03-03T18:37:06.073Z,85.10
2018-03-03T18:39:34.450Z,84.70
2018-03-03T18:42:01.978Z,84.00
2018-03-03T18:44:30.275Z,84.90
2018-03-03T18:46:58.250Z,84.90
2018-03-03T18:49:25.784Z,85.10
2018-03-03T18:51:54.137Z,84.60
2018-03-03T18:54:25.176Z,84.90
2018-03-03T18:56:52.715Z,83.60
2018-03-03T18:59:21.229Z,83.40
2018-03-03T19:01:50.134Z,83.10
2018-03-03T19:04:23.238Z,83.00
2018-03-03T19:06:52.631Z,83.30
2018-03-03T19:09:20.959Z,83.20
2018-03-03T19:11:50.207Z,83.20
2018-03-03T19:14:19.552Z,83.30
2018-03-03T19:16:48.028Z,83.50
2018-03-03T19:19:20.438Z,83.10
2018-03-03T19:21:47.975Z,83.10
2018-03-03T19:24:16.302Z,82.90
2018-03-03T19:26:44.414Z,83.30
2018-03-03T19:29:14.491Z,83.90
2018-03-03T19:31:42.043Z,83.50
2018-03-03T19:34:10.116Z,83.70
2018-03-03T19:36:37.997Z,83.70
2018-03-03T19:39:06.912Z,83.60
2018-03-03T19:41:35.541Z,84.30
2018-03-03T19:44:04.825Z,83.90
2018-03-03T19:46:32.772Z,83.90
2018-03-03T19:49:01.490Z,85.00
2018-03-03T19:51:30.587Z,86.00
2018-03-03T19:53:58.916Z,85.20
2018-03-03T19:56:26.478Z,84.90
2018-03-03T19:58:54.768Z,84.90
2018-03-03T20:01:22.702Z,84.30
2018-03-03T20:03:51.687Z,84.60
2018-03-03T20:06:21.607Z,84.30
2018-03-03T20:08:49.900Z,84.80
2018-03-03T20:11:18.252Z,84.00
2018-03-03T20:13:46.200Z,85.40
2018-03-03T20:16:14.500Z,84.50
2018-03-03T20:18:42.838Z,84.40
2018-03-03T20:21:10.752Z,84.20
2018-03-03T20:23:39.725Z,84.30
2018-03-03T20:26:07.691Z,84.30
2018-03-03T20:28:37.076Z,84.60
2018-03-03T20:31:05.365Z,85.20
2018-03-03T20:33:36.395Z,86.10
2018-03-03T20:36:03.928Z,85.60
2018-03-03T20:38:32.812Z,85.50
2018-03-03T20:41:02.179Z,85.20
2018-03-03T20:43:30.126Z,85.00
2018-03-03T20:45:58.810Z,85.40
2018-03-03T20:48:27.806Z,84.80
2018-03-03T20:50:56.094Z,85.00
2018-03-03T20:53:25.416Z,84.80
2018-03-03T20:55:58.131Z,84.60
2018-03-03T20:58:25.690Z,85.00
2018-03-03T21:00:53.627Z,85.00
2018-03-03T21:03:21.967Z,84.30
2018-03-03T21:05:51.907Z,84.70
2018-03-03T21:08:19.472Z,84.30
2018-03-03T21:10:47.137Z,84.00
2018-03-03T21:13:16.015Z,84.60
2018-03-03T21:15:51.181Z,84.80
2018-03-03T21:18:19.471Z,84.90
2018-03-03T21:20:47.408Z,85.30
2018-03-03T21:23:15.557Z,85.50
2018-03-03T21:25:50.319Z,86.00
2018-03-03T21:28:17.982Z,86.10
2018-03-03T21:30:46.298Z,86.10
2018-03-03T21:33:13.812Z,85.30
2018-03-03T21:35:41.480Z,85.40
2018-03-03T21:38:09.500Z,85.30
2018-03-03T21:40:39.378Z,85.10
2018-03-03T21:43:07.783Z,85.80
2018-03-03T21:45:36.104Z,85.10
2018-03-03T21:48:04.066Z,84.90
2018-03-03T21:50:39.706Z,84.70
2018-03-03T21:53:07.984Z,85.20
2018-03-03T21:55:36.288Z,85.20
2018-03-03T21:58:04.646Z,85.60
2018-03-03T22:00:32.567Z,84.60
2018-03-03T22:03:00.108Z,84.60
2018-03-03T22:05:28.072Z,84.80
2018-03-03T22:07:56.426Z,84.50
2018-03-03T22:10:26.104Z,84.80
2018-03-03T22:12:54.581Z,84.80
2018-03-03T22:15:22.941Z,84.80
2018-03-03T22:17:51.204Z,84.60
2018-03-03T22:20:19.235Z,84.20
2018-03-03T22:22:47.236Z,84.10
2018-03-03T22:25:15.613Z,83.80
2018-03-03T22:27:45.012Z,83.70
2018-03-03T22:30:13.556Z,83.70
2018-03-03T22:32:41.476Z,84.50
2018-03-03T22:35:09.470Z,84.00
2018-03-03T22:37:37.045Z,84.00
2018-03-03T22:40:05.759Z,83.90
2018-03-03T22:42:40.122Z,83.90
2018-03-03T22:45:08.054Z,83.90
2018-03-03T22:47:36.349Z,84.20
2018-03-03T22:50:05.124Z,84.00
2018-03-03T22:52:39.499Z,83.90
2018-03-03T22:55:07.824Z,84.30
2018-03-03T22:57:36.164Z,84.60
2018-03-03T23:00:04.707Z,84.70
2018-03-03T23:02:32.780Z,84.50
2018-03-03T23:05:01.096Z,84.90
2018-03-03T23:07:28.664Z,85.10
2018-03-03T23:09:56.264Z,85.20
2018-03-03T23:12:24.216Z,85.20
2018-03-03T23:14:52.543Z,86.00
2018-03-03T23:17:20.170Z,87.20
2018-03-03T23:19:48.484Z,87.50
2018-03-03T23:22:16.800Z,88.00
2018-03-03T23:24:45.231Z,89.00
2018-03-03T23:27:13.524Z,89.10
2018-03-03T23:29:41.800Z,88.40
2018-03-03T23:32:10.245Z,89.30
2018-03-03T23:34:37.809Z,89.10
2018-03-03T23:37:06.134Z,89.30
2018-03-03T23:39:34.606Z,89.60
2018-03-03T23:42:02.177Z,89.90
2018-03-03T23:44:30.619Z,90.00
2018-03-03T23:47:00.859Z,89.90
2018-03-03T23:49:28.803Z,90.00
2018-03-03T23:51:57.256Z,90.00
2018-03-03T23:54:25.247Z,90.10
2018-03-03T23:56:58.918Z,90.20
2018-03-03T23:59:26.511Z,90.50
